Time;durP1;ratioP1;P1;durP2;ratioP2;P2;SDS_P1;SDS_P2;PMS_P1;PMS_P2;Temp;Humidity;BMP_temperature;BMP_pressure;BME280_temperature;BME280_humidity;BME280_pressure;Samples;Min_cycle;Max_cycle;Signal;HPM_P1;HPM_P2
2022/03/24 00:02:17;;;;;;;33.10;18.90;;;6.40;99.90;;;;;;4840605;29;20373;-76
2022/03/24 00:04:43;;;;;;;33.58;20.45;;;6.30;99.90;;;;;;4825278;29;20147;-76
2022/03/24 00:07:08;;;;;;;37.83;19.50;;;6.80;99.90;;;;;;4810496;29;20054;-75
2022/03/24 00:09:34;;;;;;;33.85;19.85;;;6.50;99.90;;;;;;4827496;29;20071;-76
2022/03/24 00:12:00;;;;;;;33.95;18.88;;;6.40;99.90;;;;;;4844155;29;20110;-76
2022/03/24 00:14:26;;;;;;;30.08;17.58;;;6.40;99.90;;;;;;4840757;29;20536;-76
2022/03/24 00:16:52;;;;;;;33.03;18.10;;;6.40;99.90;;;;;;4825234;29;20381;-76
2022/03/24 00:19:19;;;;;;;36.83;20.23;;;6.50;99.90;;;;;;4826220;29;20050;-75
2022/03/24 00:21:46;;;;;;;33.20;19.23;;;6.50;99.90;;;;;;4826282;29;20133;-76
2022/03/24 00:24:11;;;;;;;31.77;19.45;;;6.70;99.90;;;;;;4809769;29;20175;-76
2022/03/24 00:26:37;;;;;;;32.50;19.77;;;6.70;99.90;;;;;;4825509;29;20133;-76
2022/03/24 00:29:04;;;;;;;32.13;19.65;;;6.80;99.90;;;;;;4824943;29;20089;-76
2022/03/24 00:31:30;;;;;;;26.95;16.33;;;6.80;99.90;;;;;;4824629;29;20058;-75
2022/03/24 00:33:56;;;;;;;31.67;19.15;;;6.70;99.90;;;;;;4824855;29;20523;-76
2022/03/24 00:36:23;;;;;;;32.08;19.30;;;6.30;99.90;;;;;;4825030;29;20058;-75
2022/03/24 00:38:52;;;;;;;30.27;18.10;;;6.20;99.90;;;;;;4810604;29;20062;-76
2022/03/24 00:41:19;;;;;;;29.55;17.40;;;6.10;99.90;;;;;;4825161;29;20065;-75
2022/03/24 00:43:48;;;;;;;24.77;15.38;;;6.10;99.90;;;;;;4839946;29;20484;-75
2022/03/24 00:46:15;;;;;;;28.05;15.75;;;6.10;99.90;;;;;;4825258;29;20054;-76
2022/03/24 00:48:41;;;;;;;33.17;17.23;;;6.00;99.90;;;;;;4825551;29;20050;-75
2022/03/24 00:51:07;;;;;;;33.42;20.00;;;5.80;99.90;;;;;;4825985;29;20121;-75
2022/03/24 00:53:32;;;;;;;34.50;19.08;;;5.80;99.90;;;;;;4824693;29;20046;-75
2022/03/24 00:55:59;;;;;;;30.95;18.17;;;5.80;99.90;;;;;;4839698;29;20484;-75
2022/03/24 00:58:25;;;;;;;33.88;18.73;;;5.80;99.90;;;;;;4839461;29;20412;-76
2022/03/24 01:00:53;;;;;;;31.83;18.60;;;5.70;99.90;;;;;;4839560;29;20050;-76
2022/03/24 01:03:19;;;;;;;28.88;16.15;;;5.70;99.90;;;;;;4824710;29;20058;-76
2022/03/24 01:05:45;;;;;;;31.95;17.75;;;5.60;99.90;;;;;;4824791;29;20099;-76
2022/03/24 01:08:10;;;;;;;32.20;20.13;;;5.60;99.90;;;;;;4840177;29;20054;-75
2022/03/24 01:10:36;;;;;;;30.38;18.50;;;5.50;99.90;;;;;;4824498;29;20397;-75
2022/03/24 01:13:03;;;;;;;33.80;19.35;;;5.60;99.90;;;;;;4839595;29;20065;-75
2022/03/24 01:15:30;;;;;;;34.85;19.90;;;5.50;99.90;;;;;;4809142;29;20069;-75
2022/03/24 01:17:59;;;;;;;34.17;19.20;;;5.60;99.90;;;;;;4824361;29;20114;-76
2022/03/24 01:20:26;;;;;;;30.77;19.45;;;5.50;99.90;;;;;;4824323;29;20493;-76
2022/03/24 01:22:51;;;;;;;30.55;18.73;;;5.50;99.90;;;;;;4824594;29;20058;-76
2022/03/24 01:25:17;;;;;;;30.83;18.27;;;5.50;99.90;;;;;;4823987;29;20056;-75
2022/03/24 01:27:43;;;;;;;34.47;20.20;;;5.50;99.90;;;;;;4824503;29;20051;-76
2022/03/24 01:30:09;;;;;;;33.25;19.33;;;5.60;99.90;;;;;;4824211;29;20507;-76
2022/03/24 01:32:36;;;;;;;30.67;17.25;;;5.50;99.90;;;;;;4825397;29;20397;-75
2022/03/24 01:35:06;;;;;;;29.00;18.23;;;5.50;99.90;;;;;;4824102;29;20057;-76
2022/03/24 01:37:32;;;;;;;31.65;19.13;;;5.30;99.90;;;;;;4824866;29;20445;-75
2022/03/24 01:39:57;;;;;;;32.97;19.58;;;5.30;99.90;;;;;;4839437;29;20273;-75
2022/03/24 01:42:26;;;;;;;33.03;19.02;;;5.20;99.90;;;;;;4823766;29;20488;-76
2022/03/24 01:44:55;;;;;;;30.63;18.25;;;5.70;99.90;;;;;;4809282;29;20050;-75
2022/03/24 01:47:22;;;;;;;30.00;18.52;;;5.20;99.90;;;;;;4824021;29;20057;-76
2022/03/24 01:49:48;;;;;;;31.65;17.65;;;5.40;99.90;;;;;;4824004;29;20072;-76
2022/03/24 01:52:15;;;;;;;32.47;18.77;;;5.20;99.90;;;;;;4824201;29;20137;-75
2022/03/24 01:54:44;;;;;;;34.70;20.33;;;5.20;99.90;;;;;;4823934;29;20050;-75
2022/03/24 01:57:11;;;;;;;32.25;18.95;;;5.20;99.90;;;;;;4838896;29;20050;-75
2022/03/24 01:59:37;;;;;;;30.35;17.70;;;5.20;99.90;;;;;;4823833;29;20050;-76
2022/03/24 02:02:04;;;;;;;37.65;19.88;;;5.50;99.90;;;;;;4825402;29;20133;-76
2022/03/24 02:04:32;;;;;;;40.20;22.60;;;5.20;99.90;;;;;;4824697;29;20111;-76
2022/03/24 02:06:58;;;;;;;37.78;21.35;;;5.20;99.90;;;;;;4823797;29;20114;-76
2022/03/24 02:09:24;;;;;;;37.05;22.05;;;5.50;99.90;;;;;;4824710;29;20050;-76
2022/03/24 02:11:50;;;;;;;36.75;20.70;;;5.30;99.90;;;;;;4824964;29;20507;-75
2022/03/24 02:14:15;;;;;;;31.58;17.50;;;5.30;99.90;;;;;;4824413;29;20054;-76
2022/03/24 02:16:41;;;;;;;35.85;20.27;;;5.50;99.90;;;;;;4807726;29;20494;-79
2022/03/24 02:19:24;;;;;;;30.90;18.85;;;5.50;99.90;;;;;;4838718;29;20110;-80
2022/03/24 02:21:55;;;;;;;34.22;20.95;;;5.20;99.90;;;;;;4824540;29;20051;-79
2022/03/24 02:24:23;;;;;;;43.45;23.50;;;5.40;99.90;;;;;;4824205;29;20051;-80
2022/03/24 02:26:49;;;;;;;40.38;22.42;;;5.10;99.90;;;;;;4824468;29;20057;-80
2022/03/24 02:29:17;;;;;;;45.15;24.02;;;5.10;99.90;;;;;;4823561;29;20137;-80
2022/03/24 02:31:50;;;;;;;41.45;23.55;;;5.70;99.90;;;;;;4823396;29;20108;-80
2022/03/24 02:37:07;;;;;;;39.80;22.85;;;5.10;99.90;;;;;;4824415;29;20488;-80
2022/03/24 02:39:34;;;;;;;37.55;22.08;;;5.10;99.90;;;;;;4838548;29;20059;-79
2022/03/24 02:42:01;;;;;;;35.28;21.33;;;5.20;99.90;;;;;;4824190;29;20133;-80
2022/03/24 02:44:33;;;;;;;34.85;19.70;;;5.50;99.90;;;;;;4824781;29;20051;-79
2022/03/24 02:47:01;;;;;;;36.25;20.60;;;5.00;99.90;;;;;;4823297;29;20504;-79
2022/03/24 02:49:30;;;;;;;42.15;23.58;;;4.80;99.90;;;;;;4824059;29;20066;-80
2022/03/24 02:51:58;;;;;;;38.20;23.67;;;4.80;99.90;;;;;;4838488;29;20050;-80
2022/03/24 02:54:25;;;;;;;39.65;22.58;;;4.80;99.90;;;;;;4824279;29;20050;-80
2022/03/24 02:56:51;;;;;;;43.85;23.92;;;4.90;99.90;;;;;;4824175;29;20054;-79
2022/03/24 02:59:17;;;;;;;40.13;23.00;;;4.80;99.90;;;;;;4823231;29;20374;-79
2022/03/24 03:01:50;;;;;;;43.92;23.42;;;4.80;99.90;;;;;;4823136;29;20564;-80
2022/03/24 03:04:16;;;;;;;41.38;22.63;;;4.80;99.90;;;;;;4824920;29;20050;-79
2022/03/24 03:06:42;;;;;;;44.80;24.00;;;4.80;99.90;;;;;;4823314;29;20446;-79
2022/03/24 03:09:08;;;;;;;41.63;22.83;;;4.70;99.90;;;;;;4823095;29;20058;-80
2022/03/24 03:11:33;;;;;;;49.80;24.35;;;5.00;99.90;;;;;;4823494;29;20107;-80
2022/03/24 03:14:00;;;;;;;39.55;22.33;;;4.80;99.90;;;;;;4823072;29;20058;-80
2022/03/24 03:16:26;;;;;;;43.85;22.48;;;4.80;99.90;;;;;;4823950;29;20092;-80
2022/03/24 03:18:53;;;;;;;46.10;24.08;;;4.80;99.90;;;;;;4824096;29;20051;-80
2022/03/24 03:21:20;;;;;;;37.25;20.65;;;5.20;99.90;;;;;;4823692;29;20119;-80
2022/03/24 03:23:45;;;;;;;37.58;21.35;;;4.70;99.90;;;;;;4823512;29;20046;-80
2022/03/24 03:26:12;;;;;;;36.72;20.55;;;4.70;99.90;;;;;;4826031;29;20115;-80
2022/03/24 03:28:38;;;;;;;41.53;23.52;;;4.70;99.90;;;;;;4827730;29;20065;-80
2022/03/24 03:31:05;;;;;;;41.25;22.33;;;4.70;99.90;;;;;;4825833;29;20058;-79
2022/03/24 03:33:34;;;;;;;41.67;24.10;;;4.70;99.90;;;;;;4826713;29;20527;-80
2022/03/24 03:36:00;;;;;;;42.22;21.95;;;4.90;99.90;;;;;;4826939;29;20054;-80
2022/03/24 03:38:26;;;;;;;32.72;18.95;;;5.10;99.90;;;;;;4825958;29;20488;-80
2022/03/24 03:40:53;;;;;;;34.90;18.58;;;4.60;99.90;;;;;;4825900;29;20061;-80
2022/03/24 03:43:19;;;;;;;40.05;20.40;;;4.50;99.90;;;;;;4826709;29;20058;-79
2022/03/24 03:45:45;;;;;;;32.72;19.63;;;4.40;99.90;;;;;;4841104;29;20514;-80
2022/03/24 03:48:11;;;;;;;45.28;25.50;;;4.60;99.90;;;;;;4826705;29;20081;-80
2022/03/24 03:50:39;;;;;;;42.55;22.83;;;4.90;99.90;;;;;;4826708;29;20059;-79
2022/03/24 03:53:05;;;;;;;45.92;24.30;;;4.20;99.90;;;;;;4825655;29;20105;-80
2022/03/24 03:55:30;;;;;;;42.17;22.75;;;4.20;99.90;;;;;;4825468;29;20480;-80
2022/03/24 03:57:56;;;;;;;41.53;22.92;;;4.20;99.90;;;;;;4825704;29;20086;-80
2022/03/24 04:03:06;;;;;;;38.83;22.65;;;4.20;99.90;;;;;;4825875;29;20397;-79
2022/03/24 04:05:33;;;;;;;36.88;20.42;;;4.50;99.90;;;;;;4825192;29;20058;-79
2022/03/24 04:07:59;;;;;;;36.78;20.63;;;4.40;99.90;;;;;;4826445;29;20058;-79
2022/03/24 04:10:27;;;;;;;40.20;22.27;;;4.20;99.90;;;;;;4840750;29;20141;-79
2022/03/24 04:12:54;;;;;;;41.38;22.23;;;4.00;99.90;;;;;;4825363;29;20060;-79
2022/03/24 04:15:20;;;;;;;29.55;17.92;;;4.20;99.90;;;;;;4826100;29;20054;-79
2022/03/24 04:17:46;;;;;;;35.85;20.20;;;4.00;99.90;;;;;;4826365;29;20572;-79
2022/03/24 04:20:13;;;;;;;32.75;20.30;;;3.90;99.90;;;;;;4826216;29;20054;-79
2022/03/24 04:22:39;;;;;;;43.90;24.40;;;3.90;99.90;;;;;;4825160;29;20065;-79
2022/03/24 04:25:05;;;;;;;39.47;22.90;;;4.10;99.90;;;;;;4826064;29;20051;-79
2022/03/24 04:27:31;;;;;;;44.33;24.00;;;3.90;99.90;;;;;;4840091;29;20050;-79
2022/03/24 04:29:57;;;;;;;44.97;25.25;;;4.40;99.90;;;;;;4840484;29;20054;-79
2022/03/24 04:32:23;;;;;;;44.15;25.00;;;4.30;99.90;;;;;;4809274;29;20108;-79
2022/03/24 04:34:48;;;;;;;44.03;24.33;;;3.80;99.90;;;;;;4824823;29;20119;-79
2022/03/24 04:37:15;;;;;;;44.55;27.23;;;3.90;99.90;;;;;;4825238;29;20195;-79
2022/03/24 04:39:41;;;;;;;46.83;24.10;;;3.90;99.90;;;;;;4824816;29;20063;-79
2022/03/24 04:42:08;;;;;;;39.88;23.25;;;4.40;99.90;;;;;;4825196;29;20050;-80
2022/03/24 04:44:34;;;;;;;41.85;23.23;;;4.00;99.90;;;;;;4824716;29;20412;-80
2022/03/24 04:47:00;;;;;;;42.92;23.25;;;4.10;99.90;;;;;;4824912;29;20060;-80
2022/03/24 04:49:29;;;;;;;41.08;22.73;;;4.10;99.90;;;;;;4840010;29;20047;-80
2022/03/24 04:51:55;;;;;;;42.55;22.50;;;4.10;99.90;;;;;;4824817;29;20050;-80
2022/03/24 04:54:20;;;;;;;38.65;22.33;;;4.10;99.90;;;;;;4839961;29;20050;-80
2022/03/24 04:56:46;;;;;;;37.22;21.05;;;4.10;99.90;;;;;;4825421;29;20475;-80
2022/03/24 04:59:12;;;;;;;42.67;23.52;;;3.90;99.90;;;;;;4824642;29;20065;-79
2022/03/24 05:01:38;;;;;;;42.47;23.60;;;3.80;99.90;;;;;;4824582;29;20137;-80
2022/03/24 05:04:07;;;;;;;32.88;19.83;;;3.70;99.90;;;;;;4824753;29;20129;-79
2022/03/24 05:06:35;;;;;;;39.20;22.67;;;3.60;99.90;;;;;;4824530;29;20051;-80
2022/03/24 05:09:00;;;;;;;41.30;23.27;;;3.50;99.90;;;;;;4824587;29;20089;-80
2022/03/24 05:11:26;;;;;;;45.38;24.92;;;3.60;99.90;;;;;;4825019;29;20096;-80
2022/03/24 05:13:52;;;;;;;43.40;23.10;;;3.70;99.90;;;;;;4824460;29;20058;-80
2022/03/24 05:16:18;;;;;;;36.13;20.33;;;3.60;99.90;;;;;;4824424;29;20050;-80
2022/03/24 05:18:44;;;;;;;37.17;20.95;;;3.60;99.90;;;;;;4825944;29;20138;-80
2022/03/24 05:21:10;;;;;;;37.60;21.48;;;4.20;99.90;;;;;;4826312;29;20069;-80
2022/03/24 05:23:36;;;;;;;38.42;21.70;;;3.60;99.90;;;;;;4839376;29;20042;-79
2022/03/24 05:26:01;;;;;;;42.67;23.80;;;3.80;99.90;;;;;;4824302;29;20062;-79
2022/03/24 05:28:27;;;;;;;38.55;21.80;;;3.70;99.90;;;;;;4825215;29;20046;-79
2022/03/24 05:30:53;;;;;;;42.08;22.65;;;3.60;99.90;;;;;;4823990;29;20118;-79
2022/03/24 05:33:19;;;;;;;40.25;23.27;;;3.90;99.90;;;;;;4823922;29;20068;-79
2022/03/24 05:35:44;;;;;;;38.05;21.88;;;3.60;99.90;;;;;;4824149;29;20054;-79
2022/03/24 05:38:10;;;;;;;39.58;21.45;;;3.50;99.90;;;;;;4839210;29;20054;-80
2022/03/24 05:40:37;;;;;;;40.42;21.85;;;3.40;99.90;;;;;;4825027;29;20051;-80
2022/03/24 05:43:03;;;;;;;41.75;22.10;;;3.60;99.90;;;;;;4839139;29;20079;-79
2022/03/24 05:45:29;;;;;;;45.42;24.38;;;3.30;99.90;;;;;;4824933;29;20051;-79
2022/03/24 05:47:54;;;;;;;42.85;22.30;;;3.20;99.90;;;;;;4824908;29;20050;-79
2022/03/24 05:50:20;;;;;;;46.25;24.45;;;3.20;99.90;;;;;;4838448;29;20050;-79
2022/03/24 05:52:49;;;;;;;44.83;23.55;;;3.20;99.90;;;;;;4823746;29;20054;-79
2022/03/24 05:55:19;;;;;;;51.42;25.50;;;3.20;99.90;;;;;;4824694;29;20062;-79
2022/03/24 05:57:44;;;;;;;43.83;23.40;;;3.20;99.90;;;;;;4825119;29;20046;-80
2022/03/24 06:00:11;;;;;;;44.58;23.33;;;3.40;99.90;;;;;;4824153;29;20487;-79
2022/03/24 06:02:37;;;;;;;43.63;24.30;;;3.20;99.90;;;;;;4823826;29;20086;-79
2022/03/24 06:05:09;;;;;;;42.72;23.77;;;3.70;99.90;;;;;;4824623;29;20053;-79
2022/03/24 06:07:36;;;;;;;47.67;25.00;;;3.20;99.90;;;;;;4824544;29;20428;-79
2022/03/24 06:10:03;;;;;;;43.80;25.70;;;3.40;99.90;;;;;;4823748;29;20450;-79
2022/03/24 06:12:28;;;;;;;44.20;25.33;;;3.40;99.90;;;;;;4823982;29;20054;-79
2022/03/24 06:14:54;;;;;;;48.38;25.63;;;3.50;99.90;;;;;;4823643;29;20050;-79
2022/03/24 06:17:20;;;;;;;46.65;26.73;;;3.60;99.90;;;;;;4823598;29;20050;-80
2022/03/24 06:19:47;;;;;;;48.95;25.90;;;3.70;99.90;;;;;;4823378;29;20050;-79
2022/03/24 06:22:14;;;;;;;49.25;28.40;;;3.80;99.90;;;;;;4824876;29;20057;-79
2022/03/24 06:24:39;;;;;;;49.97;26.75;;;3.90;99.90;;;;;;4839087;29;20377;-80
2022/03/24 06:27:05;;;;;;;43.90;25.08;;;4.70;99.90;;;;;;4824995;29;20087;-79
2022/03/24 06:29:31;;;;;;;48.83;26.83;;;4.00;99.90;;;;;;4823473;29;20057;-79
2022/03/24 06:31:57;;;;;;;51.97;29.27;;;4.10;99.90;;;;;;4823157;29;20058;-80
2022/03/24 06:34:25;;;;;;;52.60;27.27;;;4.20;99.90;;;;;;4823701;29;20070;-79
2022/03/24 06:36:51;;;;;;;57.75;30.63;;;4.30;99.90;;;;;;4824389;29;20089;-80
2022/03/24 06:39:17;;;;;;;55.85;30.75;;;4.40;99.90;;;;;;4823444;29;20046;-79
2022/03/24 06:41:43;;;;;;;52.53;28.98;;;5.00;99.90;;;;;;4823586;29;20050;-80
2022/03/24 06:44:09;;;;;;;56.70;29.10;;;4.50;99.90;;;;;;4823221;29;20065;-80
2022/03/24 06:46:35;;;;;;;52.88;29.55;;;4.60;99.90;;;;;;4824214;29;20047;-80
2022/03/24 06:49:03;;;;;;;57.85;30.45;;;4.70;99.90;;;;;;4823116;29;20069;-79
2022/03/24 06:51:30;;;;;;;59.67;29.80;;;4.80;99.90;;;;;;4823834;29;20523;-80
2022/03/24 06:53:56;;;;;;;52.80;28.30;;;5.00;99.90;;;;;;4823390;29;20057;-80
2022/03/24 06:56:22;;;;;;;56.35;31.35;;;5.10;99.90;;;;;;4824119;29;20090;-79
2022/03/24 06:58:48;;;;;;;52.25;29.38;;;5.30;99.90;;;;;;4823229;29;20050;-79
2022/03/24 07:01:14;;;;;;;52.60;30.20;;;5.30;99.90;;;;;;4826239;29;20050;-79
2022/03/24 07:03:40;;;;;;;55.03;30.58;;;5.40;99.90;;;;;;4829218;29;20054;-79
2022/03/24 07:06:05;;;;;;;58.58;31.88;;;5.50;99.90;;;;;;4828335;29;20061;-79
2022/03/24 07:08:31;;;;;;;60.35;32.92;;;5.60;99.90;;;;;;4827656;29;20058;-80
2022/03/24 07:10:57;;;;;;;59.05;32.42;;;5.70;99.90;;;;;;4826658;29;20054;-79
2022/03/24 07:13:23;;;;;;;62.30;34.42;;;5.80;99.90;;;;;;4826554;29;20058;-79
2022/03/24 07:15:49;;;;;;;62.60;33.85;;;6.00;99.90;;;;;;4841854;29;20081;-80
2022/03/24 07:18:15;;;;;;;60.13;32.78;;;6.00;99.90;;;;;;4826234;29;20485;-82
2022/03/24 07:20:42;;;;;;;59.03;31.83;;;6.10;99.90;;;;;;4827181;29;20046;-82
2022/03/24 07:23:09;;;;;;;55.92;31.02;;;6.20;99.90;;;;;;4826207;29;20053;-82
2022/03/24 07:25:39;;;;;;;55.60;31.92;;;6.30;99.90;;;;;;4827714;29;20425;-82
2022/03/24 07:28:07;;;;;;;55.22;31.63;;;6.40;99.90;;;;;;4827087;29;20133;-82
2022/03/24 07:30:33;;;;;;;52.97;31.58;;;6.50;99.90;;;;;;4826994;29;20105;-82
2022/03/24 07:33:00;;;;;;;56.08;32.67;;;6.70;99.90;;;;;;4840839;29;20535;-82
2022/03/24 07:35:28;;;;;;;56.13;30.77;;;6.70;99.90;;;;;;4840984;29;20061;-82
2022/03/24 07:37:54;;;;;;;53.75;31.00;;;6.80;99.90;;;;;;4826905;29;20080;-82
2022/03/24 07:40:22;;;;;;;52.72;30.60;;;6.90;99.90;;;;;;4826928;29;20054;-82
2022/03/24 07:42:49;;;;;;;58.05;30.42;;;7.00;99.90;;;;;;4825632;29;20042;-82
2022/03/24 07:45:16;;;;;;;51.88;31.38;;;7.10;99.90;;;;;;4827240;29;20094;-82
2022/03/24 07:48:06;;;;;;;51.05;29.10;;;7.30;99.90;;;;;;4825877;29;20061;-82
2022/03/24 07:50:33;;;;;;;51.67;28.38;;;7.40;99.90;;;;;;4826754;29;20054;-82
2022/03/24 07:53:22;;;;;;;50.88;29.33;;;7.50;99.90;;;;;;4825736;29;20058;-82
2022/03/24 07:55:48;;;;;;;51.40;28.75;;;7.60;99.90;;;;;;4826908;29;20466;-82
2022/03/24 07:58:17;;;;;;;50.97;28.13;;;7.80;99.90;;;;;;4825488;29;20054;-82
2022/03/24 08:00:43;;;;;;;48.58;27.38;;;7.80;99.90;;;;;;4825606;29;20062;-82
2022/03/24 08:03:10;;;;;;;43.60;26.60;;;7.90;99.90;;;;;;4826578;29;20085;-82
2022/03/24 08:05:36;;;;;;;45.92;25.77;;;8.00;99.90;;;;;;4826442;29;20079;-82
2022/03/24 08:08:04;;;;;;;45.25;25.52;;;8.10;99.90;;;;;;4826517;29;20046;-82
2022/03/24 08:10:30;;;;;;;42.33;24.80;;;8.30;99.90;;;;;;4825732;29;20126;-82
2022/03/24 08:12:55;;;;;;;42.38;24.95;;;8.40;99.90;;;;;;4825727;29;20602;-82
2022/03/24 08:15:21;;;;;;;46.05;26.48;;;8.60;99.90;;;;;;4826354;29;20074;-82
2022/03/24 08:17:47;;;;;;;43.60;24.55;;;8.70;99.90;;;;;;4825502;29;20083;-82
2022/03/24 08:20:13;;;;;;;43.67;25.83;;;8.80;99.90;;;;;;4826193;29;20496;-81
2022/03/24 08:22:39;;;;;;;42.33;23.85;;;8.90;99.90;;;;;;4825126;29;20160;-82
2022/03/24 08:25:08;;;;;;;45.35;24.10;;;9.10;99.90;;;;;;4826233;29;20137;-82
2022/03/24 08:27:35;;;;;;;43.33;24.15;;;9.20;99.90;;;;;;4810673;29;20057;-81
2022/03/24 08:30:02;;;;;;;43.65;24.27;;;9.40;99.90;;;;;;4826097;29;20070;-81
2022/03/24 08:32:28;;;;;;;43.17;23.92;;;9.50;99.90;;;;;;4824739;29;20114;-82
2022/03/24 08:34:54;;;;;;;45.55;23.92;;;9.60;99.90;;;;;;4825976;29;20055;-82
2022/03/24 08:37:19;;;;;;;41.35;24.30;;;9.80;99.90;;;;;;4824956;29;20047;-82
2022/03/24 08:39:45;;;;;;;39.70;24.25;;;9.90;99.90;;;;;;4825819;29;20062;-82
2022/03/24 08:42:11;;;;;;;49.70;23.92;;;10.10;99.90;;;;;;4824911;29;20089;-82
2022/03/24 08:44:36;;;;;;;39.05;21.77;;;10.10;99.90;;;;;;4824650;29;20050;-83
2022/03/24 08:47:02;;;;;;;38.88;22.38;;;10.30;99.90;;;;;;4809644;29;20149;-81
2022/03/24 08:49:28;;;;;;;39.00;22.63;;;10.40;99.90;;;;;;4825859;29;20062;-81
2022/03/24 08:51:54;;;;;;;36.35;21.92;;;10.50;99.90;;;;;;4824495;29;20129;-82
2022/03/24 08:54:19;;;;;;;40.17;22.45;;;10.70;99.90;;;;;;4825626;29;20050;-81
2022/03/24 08:56:45;;;;;;;36.10;21.88;;;10.80;99.90;;;;;;4826244;29;20392;-82
2022/03/24 08:59:11;;;;;;;34.17;21.42;;;10.90;99.90;;;;;;4824608;29;20054;-81
2022/03/24 09:01:38;;;;;;;36.08;21.35;;;11.00;99.90;;;;;;4825447;29;20078;-83
2022/03/24 09:04:04;;;;;;;38.25;22.10;;;11.20;99.90;;;;;;4824267;29;20555;-82
2022/03/24 09:06:30;;;;;;;40.15;20.67;;;11.30;99.90;;;;;;4825577;29;20058;-82
2022/03/24 09:08:55;;;;;;;35.83;20.77;;;11.50;99.90;;;;;;4824451;29;20050;-83
2022/03/24 09:11:21;;;;;;;35.30;19.90;;;11.60;99.90;;;;;;4825673;29;20057;-84
2022/03/24 09:13:47;;;;;;;39.15;22.40;;;11.70;99.90;;;;;;4839269;29;20049;-82
2022/03/24 09:16:12;;;;;;;37.28;21.52;;;11.90;99.90;;;;;;4825157;29;20050;-83
2022/03/24 09:18:38;;;;;;;37.42;20.98;;;12.00;99.90;;;;;;4825958;29;20057;-82
2022/03/24 09:21:04;;;;;;;34.47;20.48;;;12.20;99.90;;;;;;4825512;29;20058;-82
2022/03/24 09:23:31;;;;;;;39.70;21.60;;;12.30;99.90;;;;;;4825165;29;20381;-82
2022/03/24 09:25:57;;;;;;;35.42;20.63;;;12.50;99.90;;;;;;4825212;29;20080;-82
2022/03/24 09:28:24;;;;;;;37.08;21.98;;;12.60;99.90;;;;;;4824207;29;20473;-83
2022/03/24 09:30:51;;;;;;;37.30;21.05;;;12.80;99.90;;;;;;4825080;29;20133;-84
2022/03/24 09:33:20;;;;;;;33.20;20.75;;;12.90;99.90;;;;;;4823864;29;20145;-83
2022/03/24 09:35:46;;;;;;;35.92;20.27;;;13.10;99.90;;;;;;4825146;29;20062;-84
2022/03/24 09:38:12;;;;;;;34.10;20.23;;;13.20;99.90;;;;;;4825087;29;20058;-79
2022/03/24 09:40:39;;;;;;;33.65;20.52;;;13.40;99.90;;;;;;4825144;29;20137;-89
2022/03/24 09:43:05;;;;;;;36.22;20.45;;;13.50;99.90;;;;;;4824518;29;20115;-84
2022/03/24 09:45:31;;;;;;;34.70;19.23;;;13.60;99.90;;;;;;4824953;29;20042;-82
2022/03/24 09:47:56;;;;;;;33.05;19.23;;;13.80;99.90;;;;;;4824036;29;20057;-82
2022/03/24 09:50:24;;;;;;;33.20;20.05;;;13.90;99.90;;;;;;4824968;29;20530;-83
2022/03/24 09:52:52;;;;;;;32.60;20.17;;;14.00;99.90;;;;;;4825288;29;20057;-81
2022/03/24 09:55:19;;;;;;;36.40;20.48;;;14.20;99.90;;;;;;4824975;29;20065;-81
2022/03/24 09:57:47;;;;;;;38.13;20.13;;;14.30;99.90;;;;;;4839839;29;20059;-84
2022/03/24 10:00:13;;;;;;;37.20;20.05;;;14.40;99.90;;;;;;4823695;29;20118;-84
2022/03/24 10:02:39;;;;;;;33.40;20.60;;;14.50;99.90;;;;;;4823843;29;20103;-83
2022/03/24 10:05:08;;;;;;;29.67;20.10;;;14.60;99.90;;;;;;4838653;29;20049;-83
2022/03/24 10:07:43;;;;;;;31.60;19.08;;;14.70;99.90;;;;;;4824791;29;20058;-83
2022/03/24 10:10:21;;;;;;;31.67;20.52;;;14.90;99.90;;;;;;4825345;29;20058;-83
2022/03/24 10:12:47;;;;;;;33.13;20.25;;;15.00;99.90;;;;;;4824648;29;20377;-83
2022/03/24 10:15:13;;;;;;;36.17;21.95;;;15.20;99.90;;;;;;4825198;29;20043;-84
2022/03/24 10:17:48;;;;;;;31.98;20.05;;;15.30;99.90;;;;;;4824660;29;20046;-83
2022/03/24 10:20:15;;;;;;;35.20;21.85;;;15.50;99.90;;;;;;4824991;29;20365;-83
2022/03/24 10:22:56;;;;;;;34.25;21.02;;;15.60;99.90;;;;;;4838445;29;20133;-83
2022/03/24 10:25:28;;;;;;;35.30;19.00;;;15.80;99.90;;;;;;4825309;29;20046;-83
2022/03/24 10:28:05;;;;;;;29.90;18.27;;;15.90;99.90;;;;;;4825338;29;20369;-85
2022/03/24 10:30:59;;;;;;;32.90;19.42;;;16.20;99.90;;;;;;4825194;29;20055;-85
2022/03/24 10:33:47;;;;;;;31.65;18.98;;;16.50;99.90;;;;;;4824743;29;20070;-82
2022/03/24 10:36:20;;;;;;;29.30;19.02;;;16.70;99.90;;;;;;4824118;29;20485;-82
2022/03/24 10:38:48;;;;;;;32.03;19.33;;;16.90;99.90;;;;;;4828072;29;20404;-82
2022/03/24 10:41:15;;;;;;;33.17;20.77;;;17.10;99.90;;;;;;4827853;29;20054;-83
2022/03/24 10:43:42;;;;;;;28.77;18.02;;;17.20;99.90;;;;;;4827904;29;20062;-84
2022/03/24 10:46:15;;;;;;;31.25;19.42;;;17.40;99.90;;;;;;4829009;29;20065;-83
2022/03/24 10:48:41;;;;;;;32.38;19.00;;;17.50;99.90;;;;;;4830308;29;20050;-84
2022/03/24 10:51:07;;;;;;;26.75;18.98;;;17.60;99.90;;;;;;4828812;29;20046;-82
2022/03/24 10:53:42;;;;;;;27.60;18.10;;;17.70;99.90;;;;;;4827719;29;20091;-82
2022/03/24 10:56:20;;;;;;;29.25;18.35;;;17.80;99.90;;;;;;4828787;29;20438;-82
2022/03/24 10:58:54;;;;;;;24.58;18.20;;;17.90;99.90;;;;;;4826595;29;20136;-82
2022/03/24 11:01:22;;;;;;;27.73;18.45;;;18.00;99.90;;;;;;4828055;29;20058;-82
2022/03/24 11:03:48;;;;;;;26.48;17.95;;;18.00;99.90;;;;;;4827260;29;20126;-82
2022/03/24 11:06:18;;;;;;;26.10;16.60;;;18.00;99.90;;;;;;4826489;29;20442;-82
2022/03/24 11:08:52;;;;;;;26.10;17.45;;;18.10;99.90;;;;;;4828050;29;20410;-81
2022/03/24 11:11:18;;;;;;;31.23;19.30;;;18.20;99.90;;;;;;4828006;29;20376;-82
2022/03/24 11:13:46;;;;;;;26.98;17.48;;;18.20;99.90;;;;;;4827396;29;20062;-82
2022/03/24 11:16:13;;;;;;;26.73;16.58;;;18.20;99.90;;;;;;4827862;29;20061;-82
2022/03/24 11:18:40;;;;;;;29.38;17.27;;;18.30;99.90;;;;;;4811794;29;20137;-82
2022/03/24 11:21:13;;;;;;;25.48;16.42;;;18.30;99.90;;;;;;4826561;29;20058;-81
2022/03/24 11:23:39;;;;;;;25.63;16.45;;;18.30;99.90;;;;;;4827156;29;20050;-82
2022/03/24 11:26:10;;;;;;;26.40;17.20;;;18.40;99.90;;;;;;4826486;29;20050;-82
2022/03/24 11:28:37;;;;;;;28.42;17.60;;;18.50;99.90;;;;;;4841925;29;20070;-82
2022/03/24 11:31:06;;;;;;;24.75;16.83;;;18.60;99.90;;;;;;4827029;29;20050;-80
2022/03/24 11:33:43;;;;;;;23.02;15.95;;;18.60;99.90;;;;;;4826652;29;20058;-82
2022/03/24 11:36:09;;;;;;;22.50;15.80;;;18.70;99.90;;;;;;4825755;29;20062;-81
2022/03/24 11:38:37;;;;;;;23.20;15.63;;;18.60;99.90;;;;;;4827049;29;20118;-82
2022/03/24 11:41:11;;;;;;;23.65;14.98;;;18.50;99.90;;;;;;4826022;29;20058;-82
2022/03/24 11:43:43;;;;;;;23.10;15.60;;;18.50;99.20;;;;;;4826927;29;20054;-82
2022/03/24 11:46:19;;;;;;;21.35;15.05;;;18.50;98.10;;;;;;4826883;29;20093;-81
2022/03/24 11:48:45;;;;;;;20.98;14.23;;;18.50;98.40;;;;;;4824777;29;20102;-82
2022/03/24 11:51:20;;;;;;;21.13;14.00;;;18.60;98.10;;;;;;4826632;29;20054;-81
2022/03/24 11:54:03;;;;;;;21.60;14.77;;;18.60;97.40;;;;;;4826576;29;20050;-82
2022/03/24 11:56:29;;;;;;;22.15;15.52;;;18.60;96.40;;;;;;4826585;29;20137;-82
2022/03/24 11:58:55;;;;;;;21.70;15.38;;;18.50;95.30;;;;;;4825498;29;20134;-82
2022/03/24 12:01:21;;;;;;;23.25;14.90;;;18.50;95.20;;;;;;4826442;29;20054;-83
2022/03/24 12:04:08;;;;;;;21.38;14.52;;;18.60;95.70;;;;;;4826476;29;20090;-81
2022/03/24 12:06:40;;;;;;;20.33;14.57;;;18.60;93.90;;;;;;4826251;29;20373;-81
2022/03/24 12:09:07;;;;;;;23.92;14.80;;;18.70;93.60;;;;;;4825465;29;20046;-81
2022/03/24 12:11:33;;;;;;;24.23;16.42;;;19.00;93.80;;;;;;4825430;29;20097;-82
2022/03/24 12:14:04;;;;;;;20.77;14.82;;;19.10;93.20;;;;;;4826395;29;20054;-81
2022/03/24 12:16:31;;;;;;;26.63;15.93;;;19.00;92.00;;;;;;4827006;29;20066;-81
2022/03/24 12:18:57;;;;;;;23.40;16.63;;;18.90;92.10;;;;;;4826275;29;20489;-82
2022/03/24 12:21:25;;;;;;;21.70;15.50;;;18.80;92.30;;;;;;4826194;29;20056;-81
2022/03/24 12:24:17;;;;;;;23.20;15.18;;;18.80;91.40;;;;;;4826640;29;20107;-81
2022/03/24 12:26:56;;;;;;;19.92;14.30;;;18.80;91.30;;;;;;4826074;29;20093;-82
2022/03/24 12:29:26;;;;;;;19.88;14.52;;;18.80;91.10;;;;;;4826648;29;20050;-81
2022/03/24 12:31:58;;;;;;;25.63;14.68;;;19.00;91.00;;;;;;4825746;29;20090;-80
2022/03/24 12:34:46;;;;;;;21.05;14.35;;;19.20;90.90;;;;;;4826446;29;20066;-81
2022/03/24 12:37:27;;;;;;;22.77;14.40;;;19.40;85.40;;;;;;4826643;29;20054;-82
2022/03/24 12:40:09;;;;;;;23.40;15.88;;;19.80;87.80;;;;;;4826502;29;20054;-82
2022/03/24 12:42:54;;;;;;;28.75;15.98;;;20.20;88.50;;;;;;4825910;29;20057;-82